Time;durP1;ratioP1;P1;durP2;ratioP2;P2;SDS_P1;SDS_P2;PMS_P1;PMS_P2;Temp;Humidity;BMP_temperature;BMP_pressure;BME280_temperature;BME280_humidity;BME280_pressure;Samples;Min_cycle;Max_cycle;Signal;HPM_P1;HPM_P2
2023/01/11 00:00:42;;;;;;;;;;;17.20;47.30;;;;;;5086047;28;43003;-76
2023/01/11 00:03:07;;;;;;;;;;;17.20;47.10;;;;;;5066190;28;43643;-75
2023/01/11 00:05:37;;;;;;;;;;;17.20;47.30;;;;;;5066672;28;43023;-75
2023/01/11 00:08:03;;;;;;;;;;;17.20;47.30;;;;;;5068213;28;43465;-74
2023/01/11 00:10:29;;;;;;;;;;;17.10;47.50;;;;;;5065153;28;42975;-74
2023/01/11 00:12:54;;;;;;;;;;;17.20;47.50;;;;;;5071840;28;43109;-75
2023/01/11 00:15:20;;;;;;;;;;;17.20;48.10;;;;;;5085429;28;42824;-73
2023/01/11 00:17:45;;;;;;;;;;;17.20;47.80;;;;;;5080980;28;43146;-75
2023/01/11 00:20:11;;;;;;;;;;;17.20;47.70;;;;;;5086150;28;43020;-76
2023/01/11 00:22:37;;;;;;;;;;;17.30;47.40;;;;;;5086286;28;43002;-74
2023/01/11 00:25:02;;;;;;;;;;;17.40;47.50;;;;;;5071583;28;42919;-77
2023/01/11 00:27:28;;;;;;;;;;;17.30;47.70;;;;;;5065326;28;43654;-76
2023/01/11 00:29:53;;;;;;;;;;;17.30;47.50;;;;;;5084024;28;43262;-77
2023/01/11 00:32:19;;;;;;;;;;;17.30;47.80;;;;;;5080310;27;43030;-77
2023/01/11 00:34:44;;;;;;;;;;;17.30;47.60;;;;;;5070961;28;42985;-76
2023/01/11 00:37:10;;;;;;;;;;;17.30;47.70;;;;;;5047556;28;45235;-75
2023/01/11 00:39:35;;;;;;;;;;;17.20;48.10;;;;;;5064536;28;43078;-76
2023/01/11 00:50:14;;;;;;;;;;;17.20;47.80;;;;;;5065113;28;43071;-77
2023/01/11 00:52:39;;;;;;;;;;;17.20;48.00;;;;;;5064908;28;42888;-75
2023/01/11 00:55:05;;;;;;;;;;;17.20;48.10;;;;;;5064703;28;43197;-77
2023/01/11 00:57:30;;;;;;;;;;;17.20;48.20;;;;;;5065106;28;43460;-77
2023/01/11 00:59:56;;;;;;;;;;;17.20;48.30;;;;;;5065381;28;43031;-77
2023/01/11 01:02:21;;;;;;;;;;;17.20;48.30;;;;;;5048831;28;43033;-77
2023/01/11 01:04:47;;;;;;;;;;;17.20;48.10;;;;;;5042738;28;43006;-77
2023/01/11 01:07:12;;;;;;;;;;;17.20;48.20;;;;;;5055100;28;43703;-76
2023/01/11 01:09:38;;;;;;;;;;;17.20;48.20;;;;;;5064683;28;43125;-77
2023/01/11 01:12:05;;;;;;;;;;;17.20;48.50;;;;;;5064717;28;43065;-77
2023/01/11 01:14:32;;;;;;;;;;;17.20;48.40;;;;;;5064520;28;42769;-77
2023/01/11 01:16:57;;;;;;;;;;;17.20;48.50;;;;;;5064616;28;43434;-77
2023/01/11 01:19:23;;;;;;;;;;;17.10;48.40;;;;;;5064789;28;43002;-76
2023/01/11 01:21:49;;;;;;;;;;;17.40;49.00;;;;;;5064720;28;42908;-77
2023/01/11 01:24:14;;;;;;;;;;;17.20;48.40;;;;;;5064665;28;42974;-77
2023/01/11 01:26:40;;;;;;;;;;;17.20;48.70;;;;;;5064591;28;43722;-77
2023/01/11 01:29:06;;;;;;;;;;;17.10;48.70;;;;;;5064109;28;43017;-77
2023/01/11 01:31:31;;;;;;;;;;;17.10;48.90;;;;;;5063771;28;43015;-78
2023/01/11 01:33:57;;;;;;;;;;;17.30;48.90;;;;;;5064272;28;43253;-77
2023/01/11 01:36:22;;;;;;;;;;;17.10;48.50;;;;;;5064146;28;42896;-77
2023/01/11 01:38:48;;;;;;;;;;;17.20;48.90;;;;;;5046073;28;42935;-77
2023/01/11 01:41:14;;;;;;;;;;;17.10;48.70;;;;;;5046305;28;44376;-78
2023/01/11 01:43:45;;;;;;;;;;;17.20;48.60;;;;;;5057829;28;43286;-76
2023/01/11 01:46:11;;;;;;;;;;;17.20;48.60;;;;;;5055839;28;43030;-77
2023/01/11 01:48:37;;;;;;;;;;;17.10;48.90;;;;;;5047518;28;42992;-77
2023/01/11 01:51:04;;;;;;;;;;;17.30;48.80;;;;;;5047236;28;43956;-76
2023/01/11 01:53:38;;;;;;;;;;;17.10;48.70;;;;;;5046911;28;42964;-77
2023/01/11 01:56:32;;;;;;;;;;;17.20;48.70;;;;;;5045011;28;44008;-76
2023/01/11 01:59:00;;;;;;;;;;;17.00;48.60;;;;;;5029541;28;43000;-77
2023/01/11 02:04:13;;;;;;;;;;;17.10;49.10;;;;;;5047664;28;42747;-78
2023/01/11 02:06:39;;;;;;;;;;;17.10;48.90;;;;;;5047081;28;42814;-77
2023/01/11 02:09:10;;;;;;;;;;;17.10;49.00;;;;;;5060566;28;42971;-76
2023/01/11 02:11:42;;;;;;;;;;;17.10;49.00;;;;;;5067766;28;43042;-78
2023/01/11 02:14:15;;;;;;;;;;;17.10;49.10;;;;;;5067769;28;42948;-77
2023/01/11 02:16:40;;;;;;;;;;;17.10;49.00;;;;;;5067349;28;43535;-76
2023/01/11 02:19:08;;;;;;;;;;;14.30;47.80;;;;;;5067124;28;43070;-77
2023/01/11 02:21:34;;;;;;;;;;;17.10;49.20;;;;;;5048367;28;43534;-76
2023/01/11 02:24:17;;;;;;;;;;;17.10;49.00;;;;;;5066793;28;43029;-77
2023/01/11 02:27:08;;;;;;;;;;;17.20;49.00;;;;;;5066804;28;43660;-77
2023/01/11 02:29:42;;;;;;;;;;;17.10;49.00;;;;;;5067713;28;43260;-76
2023/01/11 02:32:14;;;;;;;;;;;17.10;49.10;;;;;;5066927;28;43939;-77
2023/01/11 02:35:02;;;;;;;;;;;17.00;49.20;;;;;;5067054;28;43098;-77
2023/01/11 02:37:33;;;;;;;;;;;17.10;49.20;;;;;;5066644;28;43650;-74
2023/01/11 02:39:59;;;;;;;;;;;17.10;49.70;;;;;;5066420;28;42923;-77
2023/01/11 02:45:31;;;;;;;;;;;17.10;49.30;;;;;;5066969;28;42864;-77
2023/01/11 02:48:18;;;;;;;;;;;17.10;49.20;;;;;;5066895;28;43594;-78
2023/01/11 02:50:54;;;;;;;;;;;17.20;49.30;;;;;;5067134;28;42917;-77
2023/01/11 02:53:23;;;;;;;;;;;17.10;49.30;;;;;;5066481;28;42941;-76
2023/01/11 02:55:51;;;;;;;;;;;17.10;49.30;;;;;;5066580;28;42930;-78
2023/01/11 02:58:18;;;;;;;;;;;17.10;49.60;;;;;;5066688;28;42942;-77
2023/01/11 03:00:45;;;;;;;;;;;17.10;49.30;;;;;;5066935;28;42990;-77
2023/01/11 03:03:12;;;;;;;;;;;17.10;49.40;;;;;;5066736;28;43961;-77
2023/01/11 03:05:43;;;;;;;;;;;17.10;49.60;;;;;;5067035;28;42982;-77
2023/01/11 03:08:14;;;;;;;;;;;17.10;49.50;;;;;;5066023;28;43416;-76
2023/01/11 03:10:56;;;;;;;;;;;17.10;49.40;;;;;;5058333;28;43194;-76
2023/01/11 03:13:31;;;;;;;;;;;17.10;49.40;;;;;;5051299;28;42975;-77
2023/01/11 03:16:12;;;;;;;;;;;17.40;49.60;;;;;;5066599;28;42916;-77
2023/01/11 03:18:49;;;;;;;;;;;17.10;49.50;;;;;;5066364;28;43000;-76
2023/01/11 03:21:17;;;;;;;;;;;17.10;49.50;;;;;;5066546;28;43029;-76
2023/01/11 03:23:43;;;;;;;;;;;17.10;49.50;;;;;;5065949;28;42892;-75
2023/01/11 03:26:08;;;;;;;;;;;17.30;49.70;;;;;;5046829;28;42994;-75
2023/01/11 03:28:37;;;;;;;;;;;17.00;49.60;;;;;;5065591;28;42894;-77
2023/01/11 03:31:07;;;;;;;;;;;17.00;49.50;;;;;;5066147;28;43091;-75
2023/01/11 03:33:39;;;;;;;;;;;17.00;49.60;;;;;;5065946;28;42891;-77
2023/01/11 03:36:06;;;;;;;;;;;17.00;49.60;;;;;;5066338;28;42856;-77
2023/01/11 03:38:34;;;;;;;;;;;17.00;49.70;;;;;;5065782;28;42896;-77
2023/01/11 03:41:08;;;;;;;;;;;17.00;49.60;;;;;;5066236;28;42935;-77
2023/01/11 03:43:35;;;;;;;;;;;17.00;49.60;;;;;;5065383;28;42875;-76
2023/01/11 03:46:04;;;;;;;;;;;17.00;49.70;;;;;;5047364;28;42985;-77
2023/01/11 03:48:31;;;;;;;;;;;17.00;49.60;;;;;;5065230;28;43298;-76
2023/01/11 03:50:58;;;;;;;;;;;17.00;49.60;;;;;;5065887;28;42865;-77
2023/01/11 03:53:26;;;;;;;;;;;17.00;49.80;;;;;;5065173;28;43558;-77
2023/01/11 03:55:55;;;;;;;;;;;17.00;49.70;;;;;;5065790;28;43038;-77
2023/01/11 03:58:21;;;;;;;;;;;17.00;49.70;;;;;;5065313;28;44065;-77
2023/01/11 04:00:48;;;;;;;;;;;17.00;49.70;;;;;;5065037;28;42986;-77
2023/01/11 04:03:14;;;;;;;;;;;17.20;49.80;;;;;;5046587;28;44312;-76
2023/01/11 04:05:42;;;;;;;;;;;17.00;50.20;;;;;;5047407;28;42829;-77
2023/01/11 04:08:08;;;;;;;;;;;17.00;50.00;;;;;;5064832;28;43003;-77
2023/01/11 04:10:34;;;;;;;;;;;17.00;49.90;;;;;;5065349;28;42928;-77
2023/01/11 04:12:59;;;;;;;;;;;17.00;50.30;;;;;;5065768;28;43153;-75
2023/01/11 04:15:25;;;;;;;;;;;17.00;50.30;;;;;;5064288;28;42913;-78
2023/01/11 04:17:50;;;;;;;;;;;17.00;49.90;;;;;;5058154;28;43654;-78
2023/01/11 04:20:16;;;;;;;;;;;17.00;50.00;;;;;;5064891;28;42971;-78
2023/01/11 04:22:41;;;;;;;;;;;17.00;50.10;;;;;;5044084;28;43049;-79
2023/01/11 04:25:08;;;;;;;;;;;17.00;50.20;;;;;;5073707;28;42962;-78
2023/01/11 04:27:34;;;;;;;;;;;17.00;50.00;;;;;;5067765;28;42873;-78
2023/01/11 04:29:59;;;;;;;;;;;17.00;50.00;;;;;;5064828;28;42951;-79
2023/01/11 04:32:25;;;;;;;;;;;17.00;50.10;;;;;;5081228;28;43026;-76
2023/01/11 04:34:50;;;;;;;;;;;17.00;50.10;;;;;;5076282;28;43421;-79
2023/01/11 04:37:16;;;;;;;;;;;17.00;50.10;;;;;;5063604;28;42991;-76
2023/01/11 04:39:41;;;;;;;;;;;17.00;50.20;;;;;;5063849;28;42805;-78
2023/01/11 04:42:17;;;;;;;;;;;17.00;50.20;;;;;;5066322;28;43013;-78
2023/01/11 04:44:43;;;;;;;;;;;17.00;50.20;;;;;;5064314;28;42831;-78
2023/01/11 04:47:08;;;;;;;;;;;17.00;50.20;;;;;;5068771;28;43379;-79
2023/01/11 04:49:34;;;;;;;;;;;16.90;50.30;;;;;;5063717;28;42889;-78
2023/01/11 04:51:59;;;;;;;;;;;17.00;50.20;;;;;;5063230;28;43722;-78
2023/01/11 04:54:25;;;;;;;;;;;17.00;50.20;;;;;;5069077;28;43296;-74
2023/01/11 04:56:50;;;;;;;;;;;17.00;50.10;;;;;;5062501;28;43146;-79
2023/01/11 04:59:16;;;;;;;;;;;17.00;50.20;;;;;;5061450;28;43057;-74
2023/01/11 05:01:41;;;;;;;;;;;17.00;50.30;;;;;;5062211;28;44097;-78
2023/01/11 05:04:07;;;;;;;;;;;17.00;50.20;;;;;;5064373;28;43022;-79
2023/01/11 05:06:32;;;;;;;;;;;17.00;50.20;;;;;;5064092;28;43658;-77
2023/01/11 05:08:58;;;;;;;;;;;17.10;50.30;;;;;;5061997;28;42904;-79
2023/01/11 05:11:23;;;;;;;;;;;17.10;50.10;;;;;;5063798;28;43404;-79
2023/01/11 05:13:49;;;;;;;;;;;17.10;50.10;;;;;;5067433;28;42931;-79
2023/01/11 05:16:18;;;;;;;;;;;17.10;50.00;;;;;;5075325;28;42908;-79
2023/01/11 05:18:48;;;;;;;;;;;17.10;50.00;;;;;;5064720;28;42911;-79
2023/01/11 05:21:14;;;;;;;;;;;17.00;50.10;;;;;;5049507;28;45421;-80
2023/01/11 05:23:40;;;;;;;;;;;17.00;50.20;;;;;;5067965;28;42923;-79
2023/01/11 05:26:08;;;;;;;;;;;17.00;50.20;;;;;;5068167;28;42974;-79
2023/01/11 05:28:33;;;;;;;;;;;17.00;50.30;;;;;;5068496;28;43026;-79
2023/01/11 05:30:59;;;;;;;;;;;17.00;50.30;;;;;;5049024;28;43707;-79
2023/01/11 05:33:25;;;;;;;;;;;17.00;50.30;;;;;;5068260;28;43078;-80
2023/01/11 05:35:55;;;;;;;;;;;16.90;50.30;;;;;;5068120;28;42833;-80
2023/01/11 05:38:21;;;;;;;;;;;16.90;50.30;;;;;;5049784;28;43050;-80
2023/01/11 05:40:52;;;;;;;;;;;16.90;50.40;;;;;;5067796;28;42951;-80
2023/01/11 05:43:17;;;;;;;;;;;16.90;50.40;;;;;;5060832;28;42801;-80
2023/01/11 05:45:43;;;;;;;;;;;16.90;50.40;;;;;;5067989;28;43764;-80
2023/01/11 05:48:08;;;;;;;;;;;16.90;50.40;;;;;;5068222;28;42816;-78
2023/01/11 05:50:34;;;;;;;;;;;16.90;50.50;;;;;;5067089;28;43548;-79
2023/01/11 05:52:59;;;;;;;;;;;17.10;50.20;;;;;;5066504;28;43089;-79
2023/01/11 05:55:25;;;;;;;;;;;17.10;50.10;;;;;;5067241;28;43843;-78
2023/01/11 05:57:50;;;;;;;;;;;17.00;50.20;;;;;;5064336;28;42999;-77
2023/01/11 06:00:16;;;;;;;;;;;17.00;50.40;;;;;;5065762;28;43466;-79
2023/01/11 06:02:41;;;;;;;;;;;17.00;50.50;;;;;;5066583;28;42947;-76
2023/01/11 06:05:07;;;;;;;;;;;17.00;50.50;;;;;;5066975;28;43085;-76
2023/01/11 06:07:33;;;;;;;;;;;16.90;50.50;;;;;;5067119;28;43050;-74
2023/01/11 06:09:58;;;;;;;;;;;17.00;50.60;;;;;;5066982;28;43030;-76
2023/01/11 06:12:24;;;;;;;;;;;16.90;50.50;;;;;;5066961;28;43095;-77
2023/01/11 06:14:49;;;;;;;;;;;16.90;50.60;;;;;;5074676;28;42985;-76
2023/01/11 06:17:15;;;;;;;;;;;16.90;50.60;;;;;;5074313;28;42919;-78
2023/01/11 06:19:40;;;;;;;;;;;16.90;50.60;;;;;;5072240;28;42799;-77
2023/01/11 06:22:06;;;;;;;;;;;16.90;50.60;;;;;;5067799;28;42860;-77
2023/01/11 06:24:31;;;;;;;;;;;16.90;50.60;;;;;;5067383;28;42978;-78
2023/01/11 06:26:57;;;;;;;;;;;16.90;50.70;;;;;;5066884;28;42949;-77
2023/01/11 06:29:22;;;;;;;;;;;16.90;50.70;;;;;;5063499;28;43526;-77
2023/01/11 06:31:48;;;;;;;;;;;16.90;50.70;;;;;;5055763;28;42975;-77
2023/01/11 06:34:13;;;;;;;;;;;16.90;50.70;;;;;;5074494;28;44256;-77
2023/01/11 06:36:39;;;;;;;;;;;16.90;50.70;;;;;;5074099;28;43093;-75
2023/01/11 06:39:04;;;;;;;;;;;16.90;50.70;;;;;;5074792;28;43454;-76
2023/01/11 06:41:30;;;;;;;;;;;16.90;50.70;;;;;;5066244;28;43050;-76
2023/01/11 06:43:56;;;;;;;;;;;16.90;50.70;;;;;;5048776;28;43621;-78
2023/01/11 06:46:21;;;;;;;;;;;16.90;49.60;;;;;;5063798;28;42870;-78
2023/01/11 06:48:47;;;;;;;;;;;17.00;42.80;;;;;;5054885;28;43057;-77
2023/01/11 06:51:14;;;;;;;;;;;16.80;39.60;;;;;;5048574;28;42947;-78
2023/01/11 06:53:40;;;;;;;;;;;16.90;37.40;;;;;;5065700;28;43465;-77
2023/01/11 06:56:06;;;;;;;;;;;16.80;37.10;;;;;;5066183;28;42971;-78
2023/01/11 06:58:31;;;;;;;;;;;16.70;36.90;;;;;;5065634;28;43557;-79
2023/01/11 07:00:57;;;;;;;;;;;16.60;36.10;;;;;;5061954;28;42880;-79
2023/01/11 07:03:23;;;;;;;;;;;16.50;34.40;;;;;;5066331;28;43438;-77
2023/01/11 07:05:49;;;;;;;;;;;16.30;33.90;;;;;;5066301;28;42941;-82
2023/01/11 07:08:14;;;;;;;;;;;16.10;33.80;;;;;;5066004;28;42884;-76
2023/01/11 07:10:41;;;;;;;;;;;16.00;35.00;;;;;;5065559;28;43555;-74
2023/01/11 07:13:06;;;;;;;;;;;15.90;35.10;;;;;;5065022;28;43528;-80
2023/01/11 07:15:32;;;;;;;;;;;15.80;35.60;;;;;;5075114;28;42932;-80
2023/01/11 07:17:58;;;;;;;;;;;15.90;35.00;;;;;;5075070;28;43036;-74
2023/01/11 07:20:24;;;;;;;;;;;15.80;34.20;;;;;;5076335;28;43042;-80
2023/01/11 07:22:50;;;;;;;;;;;15.80;34.00;;;;;;5065622;28;43462;-80
2023/01/11 07:25:16;;;;;;;;;;;15.80;33.70;;;;;;5076981;28;42962;-80
2023/01/11 07:27:41;;;;;;;;;;;15.70;33.60;;;;;;5065988;28;43017;-77
2023/01/11 07:30:07;;;;;;;;;;;15.70;33.60;;;;;;5066008;28;42949;-78
2023/01/11 07:32:34;;;;;;;;;;;15.60;33.50;;;;;;5063986;28;44216;-74
2023/01/11 07:35:00;;;;;;;;;;;15.60;34.40;;;;;;5064582;28;42915;-77
2023/01/11 07:37:25;;;;;;;;;;;15.60;35.00;;;;;;5065707;28;42935;-79
2023/01/11 07:39:51;;;;;;;;;;;15.70;35.90;;;;;;5064438;28;42826;-78
2023/01/11 07:45:00;;;;;;;;;;;16.00;37.50;;;;;;5065402;28;42895;-79
2023/01/11 07:47:26;;;;;;;;;;;16.20;38.10;;;;;;5064643;28;43393;-78
2023/01/11 07:49:52;;;;;;;;;;;16.30;38.40;;;;;;5062758;28;42859;-79
2023/01/11 07:52:18;;;;;;;;;;;16.30;38.70;;;;;;5064611;28;43477;-76
2023/01/11 07:54:43;;;;;;;;;;;16.30;39.00;;;;;;5065678;28;42891;-78
2023/01/11 07:57:09;;;;;;;;;;;16.40;39.30;;;;;;5046576;28;44563;-79
2023/01/11 07:59:34;;;;;;;;;;;16.50;39.60;;;;;;5049922;28;42971;-77
2023/01/11 08:02:00;;;;;;;;;;;15.00;39.20;;;;;;5045405;28;42924;-79
2023/01/11 08:04:25;;;;;;;;;;;16.40;40.60;;;;;;5045279;28;42990;-77
2023/01/11 08:06:51;;;;;;;;;;;16.40;41.20;;;;;;5049884;28;42970;-79
2023/01/11 08:09:16;;;;;;;;;;;16.40;41.60;;;;;;5064633;28;42923;-79
2023/01/11 08:14:38;;;;;;;;;;;16.40;41.80;;;;;;5064857;28;43256;-76
2023/01/11 08:17:04;;;;;;;;;;;16.40;42.10;;;;;;5064919;28;42927;-78
2023/01/11 08:19:29;;;;;;;;;;;16.40;42.20;;;;;;5064195;28;42918;-79
2023/01/11 08:21:55;;;;;;;;;;;16.40;42.40;;;;;;5046459;28;44382;-79
2023/01/11 08:24:20;;;;;;;;;;;16.40;42.40;;;;;;5064944;28;43015;-79
2023/01/11 08:26:46;;;;;;;;;;;16.40;42.40;;;;;;5063772;28;43561;-79
2023/01/11 08:29:12;;;;;;;;;;;16.40;42.50;;;;;;5064895;28;43013;-78
2023/01/11 08:31:37;;;;;;;;;;;16.50;42.60;;;;;;5065394;28;43478;-80
2023/01/11 08:34:03;;;;;;;;;;;16.40;38.80;;;;;;5065408;28;43014;-73
2023/01/11 08:36:30;;;;;;;;;;;16.30;36.40;;;;;;5054935;28;43290;-75
2023/01/11 08:38:56;;;;;;;;;;;16.20;35.50;;;;;;5043889;28;43071;-74
2023/01/11 08:41:22;;;;;;;;;;;16.20;34.90;;;;;;5044871;28;43458;-78
2023/01/11 08:43:48;;;;;;;;;;;16.10;33.70;;;;;;5045393;28;42955;-73
2023/01/11 08:46:14;;;;;;;;;;;16.10;33.80;;;;;;5044258;28;43510;-74
2023/01/11 08:48:40;;;;;;;;;;;16.00;33.90;;;;;;5045237;28;42944;-76
2023/01/11 08:51:05;;;;;;;;;;;15.90;34.80;;;;;;5045112;28;43333;-75
2023/01/11 08:53:31;;;;;;;;;;;15.80;34.30;;;;;;5045049;28;42980;-75
2023/01/11 08:55:56;;;;;;;;;;;15.80;34.00;;;;;;5044907;28;43417;-74
2023/01/11 08:58:22;;;;;;;;;;;15.70;33.90;;;;;;5044962;28;42932;-76
2023/01/11 09:00:47;;;;;;;;;;;15.70;33.90;;;;;;5044770;28;43402;-77
2023/01/11 09:03:13;;;;;;;;;;;15.60;34.00;;;;;;5044617;28;43047;-74
2023/01/11 09:05:40;;;;;;;;;;;15.60;33.90;;;;;;5045107;28;43881;-73
2023/01/11 09:08:06;;;;;;;;;;;15.60;33.40;;;;;;5045168;28;43290;-75
2023/01/11 09:10:32;;;;;;;;;;;15.60;33.50;;;;;;5044337;28;43601;-77
2023/01/11 09:12:57;;;;;;;;;;;15.60;33.70;;;;;;5044246;28;42999;-72
2023/01/11 09:15:23;;;;;;;;;;;15.50;34.00;;;;;;5044231;28;42922;-73
2023/01/11 09:17:49;;;;;;;;;;;15.50;34.00;;;;;;5044732;28;42949;-76
2023/01/11 09:20:15;;;;;;;;;;;15.50;33.80;;;;;;5043735;28;42963;-74
2023/01/11 09:22:44;;;;;;;;;;;15.60;33.10;;;;;;5025934;28;43020;-76
2023/01/11 09:25:09;;;;;;;;;;;15.60;32.60;;;;;;5044552;28;42916;-74
2023/01/11 09:27:35;;;;;;;;;;;15.60;32.00;;;;;;5044194;28;43015;-77
2023/01/11 09:30:01;;;;;;;;;;;15.50;32.30;;;;;;5026651;28;44417;-76
2023/01/11 09:32:27;;;;;;;;;;;15.60;31.70;;;;;;5044687;28;43016;-76
2023/01/11 09:34:56;;;;;;;;;;;15.60;31.50;;;;;;5043993;28;43007;-77
2023/01/11 09:37:21;;;;;;;;;;;15.60;31.20;;;;;;5044404;28;42932;-74
2023/01/11 09:39:48;;;;;;;;;;;15.60;30.70;;;;;;5044384;28;42869;-77
2023/01/11 09:42:20;;;;;;;;;;;15.60;30.90;;;;;;5026611;28;43016;-73
2023/01/11 09:44:50;;;;;;;;;;;15.50;29.90;;;;;;5044900;28;42980;-74
2023/01/11 09:47:19;;;;;;;;;;;15.50;29.60;;;;;;5044667;28;42900;-75
2023/01/11 09:49:50;;;;;;;;;;;15.40;29.90;;;;;;5044425;28;43549;-73
2023/01/11 09:52:38;;;;;;;;;;;15.40;29.90;;;;;;5044440;28;43021;-76
2023/01/11 09:55:04;;;;;;;;;;;15.40;30.20;;;;;;5044297;28;42926;-78
2023/01/11 09:57:30;;;;;;;;;;;15.40;30.00;;;;;;5044702;28;42878;-73
2023/01/11 10:00:05;;;;;;;;;;;15.40;30.50;;;;;;5026156;28;44868;-73
2023/01/11 10:02:37;;;;;;;;;;;15.50;30.00;;;;;;5042908;28;42984;-76
2023/01/11 10:05:22;;;;;;;;;;;15.40;29.90;;;;;;5043856;28;43646;-75
2023/01/11 10:07:56;;;;;;;;;;;15.40;30.00;;;;;;5047021;28;43058;-76
2023/01/11 10:10:22;;;;;;;;;;;15.40;30.60;;;;;;5046701;28;43020;-76
2023/01/11 10:13:03;;;;;;;;;;;15.40;31.10;;;;;;5047514;28;43018;-77
2023/01/11 10:15:34;;;;;;;;;;;12.80;28.90;;;;;;5028725;28;43636;-79
2023/01/11 10:18:12;;;;;;;;;;;15.40;30.30;;;;;;5047197;28;42876;-77
2023/01/11 10:20:45;;;;;;;;;;;15.40;30.10;;;;;;5047536;28;43744;-77
2023/01/11 10:23:23;;;;;;;;;;;15.40;30.00;;;;;;5047719;28;42901;-77
2023/01/11 10:25:53;;;;;;;;;;;15.50;29.90;;;;;;5029106;28;43336;-77
2023/01/11 10:28:30;;;;;;;;;;;15.40;30.00;;;;;;5057809;28;43044;-78
2023/01/11 10:33:37;;;;;;;;;;;15.40;30.70;;;;;;5067332;28;42929;-77
2023/01/11 10:39:09;;;;;;;;;;;15.50;30.60;;;;;;5067636;28;42836;-78
2023/01/11 10:41:51;;;;;;;;;;;15.50;30.60;;;;;;5067496;28;43614;-79
2023/01/11 10:44:37;;;;;;;;;;;15.50;30.40;;;;;;5066998;28;42938;-78
2023/01/11 10:47:03;;;;;;;;;;;15.50;31.00;;;;;;5066232;28;42868;-78
2023/01/11 10:49:35;;;;;;;;;;;15.50;30.50;;;;;;5067222;28;43232;-77
2023/01/11 10:52:12;;;;;;;;;;;15.40;30.70;;;;;;5066859;28;42938;-78
2023/01/11 10:54:38;;;;;;;;;;;15.40;31.30;;;;;;5067407;28;42935;-78
2023/01/11 10:57:12;;;;;;;;;;;15.50;31.00;;;;;;5047621;28;43361;-77
2023/01/11 10:59:42;;;;;;;;;;;15.50;32.00;;;;;;5066891;28;42971;-78
2023/01/11 11:02:17;;;;;;;;;;;15.50;31.10;;;;;;5065770;28;42915;-80
2023/01/11 11:04:45;;;;;;;;;;;15.60;31.30;;;;;;5066801;28;42813;-78
2023/01/11 11:07:13;;;;;;;;;;;15.50;31.40;;;;;;5066745;28;42907;-79
2023/01/11 11:09:47;;;;;;;;;;;15.50;31.40;;;;;;5065660;28;43051;-77
2023/01/11 11:12:28;;;;;;;;;;;15.40;31.70;;;;;;5065991;28;43650;-78
2023/01/11 11:15:01;;;;;;;;;;;15.50;31.70;;;;;;5066082;28;42847;-79
2023/01/11 11:17:30;;;;;;;;;;;15.50;31.80;;;;;;5066161;28;43704;-78
2023/01/11 11:19:56;;;;;;;;;;;15.50;31.60;;;;;;5064539;28;43385;-79
2023/01/11 11:22:21;;;;;;;;;;;15.50;31.50;;;;;;5051750;28;43613;-78
2023/01/11 11:25:02;;;;;;;;;;;15.50;31.90;;;;;;5065476;28;43058;-79
2023/01/11 11:27:39;;;;;;;;;;;15.50;31.90;;;;;;5065331;28;43655;-79
2023/01/11 11:30:08;;;;;;;;;;;15.40;32.40;;;;;;5063412;28;43489;-79
2023/01/11 11:32:35;;;;;;;;;;;15.40;32.90;;;;;;5030562;28;44985;-76
2023/01/11 11:35:01;;;;;;;;;;;15.40;32.50;;;;;;5057642;28;42983;-77
2023/01/11 11:37:47;;;;;;;;;;;15.40;32.90;;;;;;5051426;28;43392;-81
2023/01/11 11:40:31;;;;;;;;;;;15.40;32.90;;;;;;5045408;28;42828;-79
2023/01/11 12:03:46;;;;;;;;;;;15.60;33.80;;;;;;4890867;22;44341;-80
2023/01/11 12:06:18;;;;;;;;;;;15.60;33.60;;;;;;5044864;28;42874;-82
2023/01/11 12:08:44;;;;;;;;;;;15.70;33.20;;;;;;5042666;28;43025;-82
2023/01/11 12:11:16;;;;;;;;;;;15.70;33.00;;;;;;5045038;28;43041;-81
2023/01/11 12:13:43;;;;;;;;;;;15.70;33.30;;;;;;5041780;28;44148;-82
2023/01/11 12:16:19;;;;;;;;;;;15.70;32.70;;;;;;5045194;28;42886;-82
2023/01/11 12:18:45;;;;;;;;;;;15.70;32.20;;;;;;5044606;28;42997;-81
2023/01/11 12:21:13;;;;;;;;;;;15.80;32.20;;;;;;5045016;28;42990;-80
2023/01/11 12:23:41;;;;;;;;;;;15.80;32.20;;;;;;5044567;28;64461;-79
2023/01/11 12:26:09;;;;;;;;;;;15.80;32.10;;;;;;5044620;28;42783;-81
2023/01/11 12:28:44;;;;;;;;;;;15.70;31.80;;;;;;5035968;28;43081;-80
2023/01/11 12:31:12;;;;;;;;;;;15.70;32.20;;;;;;5044017;28;42945;-83
2023/01/11 12:33:44;;;;;;;;;;;15.70;32.30;;;;;;5038617;28;43994;-79
2023/01/11 12:36:16;;;;;;;;;;;15.70;32.60;;;;;;5041526;28;42960;-85
2023/01/11 12:38:47;;;;;;;;;;;15.70;33.30;;;;;;5043006;28;43027;-84
2023/01/11 12:41:46;;;;;;;;;;;15.70;34.10;;;;;;5043827;28;43068;-85
2023/01/11 12:44:35;;;;;;;;;;;15.70;34.60;;;;;;5043862;28;42796;-83
2023/01/11 12:47:19;;;;;;;;;;;15.80;35.00;;;;;;5002103;28;43038;-83
2023/01/11 12:49:49;;;;;;;;;;;15.80;35.40;;;;;;5042454;28;43719;-83
2023/01/11 12:52:30;;;;;;;;;;;15.90;35.60;;;;;;5044601;28;43056;-82
2023/01/11 12:55:14;;;;;;;;;;;16.00;35.90;;;;;;5036129;28;42934;-81
2023/01/11 12:57:53;;;;;;;;;;;16.10;36.00;;;;;;5024766;28;42963;-80
2023/01/11 13:00:36;;;;;;;;;;;16.10;36.20;;;;;;5023373;28;44528;-82
2023/01/11 13:03:20;;;;;;;;;;;16.10;36.30;;;;;;5024303;28;42861;-82
2023/01/11 13:05:45;;;;;;;;;;;16.20;36.50;;;;;;5020284;28;43763;-82
2023/01/11 13:08:15;;;;;;;;;;;16.20;36.60;;;;;;5023922;28;43131;-82
2023/01/11 13:10:49;;;;;;;;;;;16.20;36.80;;;;;;5023873;28;43807;-82
2023/01/11 13:13:20;;;;;;;;;;;16.20;36.90;;;;;;5023334;28;42965;-82
2023/01/11 13:15:47;;;;;;;;;;;16.20;37.10;;;;;;5024001;28;42938;-82
2023/01/11 13:18:13;;;;;;;;;;;16.20;37.30;;;;;;5024783;28;43140;-82
2023/01/11 13:20:41;;;;;;;;;;;16.20;37.60;;;;;;5022986;28;43007;-82
2023/01/11 13:23:17;;;;;;;;;;;16.20;37.80;;;;;;5025197;28;42935;-80
2023/01/11 13:25:44;;;;;;;;;;;16.20;37.80;;;;;;5037471;28;43074;-85
2023/01/11 13:28:24;;;;;;;;;;;16.20;38.20;;;;;;5051836;28;43032;-83
2023/01/11 13:30:53;;;;;;;;;;;16.10;38.20;;;;;;5045668;28;44012;-82
2023/01/11 13:33:23;;;;;;;;;;;16.30;38.40;;;;;;5046320;28;43014;-82
2023/01/11 13:36:00;;;;;;;;;;;16.10;38.60;;;;;;5048370;28;43787;-81
2023/01/11 13:38:40;;;;;;;;;;;16.20;38.70;;;;;;5048768;28;42964;-81
2023/01/11 13:41:11;;;;;;;;;;;16.20;38.80;;;;;;5050770;28;43014;-81
2023/01/11 13:43:44;;;;;;;;;;;16.20;38.90;;;;;;5054980;28;42956;-81
2023/01/11 13:46:36;;;;;;;;;;;16.20;39.00;;;;;;5050605;28;43244;-82
2023/01/11 13:49:17;;;;;;;;;;;16.20;39.20;;;;;;5026570;28;43001;-82
2023/01/11 13:51:55;;;;;;;;;;;16.20;39.20;;;;;;5029493;28;44446;-81
2023/01/11 13:54:37;;;;;;;;;;;16.20;39.40;;;;;;5046817;28;43043;-81
2023/01/11 13:57:05;;;;;;;;;;;16.20;39.50;;;;;;5046210;28;43053;-81
2023/01/11 13:59:37;;;;;;;;;;;16.20;39.60;;;;;;5047115;28;43038;-82
2023/01/11 14:02:09;;;;;;;;;;;16.30;39.70;;;;;;5047239;28;43422;-81
2023/01/11 14:04:52;;;;;;;;;;;16.30;39.80;;;;;;5048677;28;43005;-81
2023/01/11 14:07:17;;;;;;;;;;;16.20;39.90;;;;;;5051499;28;43858;-82
2023/01/11 14:09:45;;;;;;;;;;;16.30;40.00;;;;;;5052789;28;42947;-81
2023/01/11 14:12:30;;;;;;;;;;;16.30;40.10;;;;;;5050171;28;44154;-81
2023/01/11 14:15:17;;;;;;;;;;;16.30;40.00;;;;;;5051638;28;43004;-81
2023/01/11 14:18:04;;;;;;;;;;;16.30;40.20;;;;;;5052518;28;43403;-80
2023/01/11 14:20:29;;;;;;;;;;;16.30;40.40;;;;;;5050737;28;42990;-80
2023/01/11 14:23:04;;;;;;;;;;;16.40;40.50;;;;;;5053758;28;43323;-81
2023/01/11 14:25:31;;;;;;;;;;;16.30;40.50;;;;;;5045843;28;42967;-81
2023/01/11 14:27:56;;;;;;;;;;;16.40;40.60;;;;;;5046195;28;43478;-81
2023/01/11 14:30:40;;;;;;;;;;;16.30;40.60;;;;;;5046902;28;42995;-81
2023/01/11 14:33:26;;;;;;;;;;;16.40;40.80;;;;;;5046682;28;43837;-81
2023/01/11 14:35:58;;;;;;;;;;;16.40;40.80;;;;;;4987821;28;43034;-81
2023/01/11 14:38:37;;;;;;;;;;;16.40;40.90;;;;;;5046118;28;43100;-81
2023/01/11 14:41:03;;;;;;;;;;;16.40;41.00;;;;;;5046511;28;42936;-81
2023/01/11 14:43:37;;;;;;;;;;;16.40;41.00;;;;;;5046452;28;43512;-82
2023/01/11 14:46:03;;;;;;;;;;;16.40;41.60;;;;;;5028136;28;43105;-82
2023/01/11 14:48:43;;;;;;;;;;;16.50;41.20;;;;;;5046177;28;42851;-82
2023/01/11 14:51:29;;;;;;;;;;;16.40;41.20;;;;;;5045241;28;42878;-82
2023/01/11 14:53:57;;;;;;;;;;;16.40;41.30;;;;;;5044592;28;43995;-82
2023/01/11 14:56:34;;;;;;;;;;;16.50;41.40;;;;;;5054587;28;42938;-82
2023/01/11 14:59:01;;;;;;;;;;;16.50;41.40;;;;;;5049880;28;43909;-84
2023/01/11 15:01:26;;;;;;;;;;;16.50;41.60;;;;;;5051071;28;43111;-80
2023/01/11 15:03:54;;;;;;;;;;;16.30;42.00;;;;;;5028569;28;45655;-84
2023/01/11 15:06:21;;;;;;;;;;;16.50;41.70;;;;;;5033671;28;43002;-82
2023/01/11 15:08:51;;;;;;;;;;;16.60;41.80;;;;;;5051188;28;42892;-84
2023/01/11 15:11:21;;;;;;;;;;;16.50;41.80;;;;;;5052959;28;42915;-81
2023/01/11 15:13:50;;;;;;;;;;;16.50;41.90;;;;;;5051098;28;43562;-83